Time;durP1;ratioP1;P1;durP2;ratioP2;P2;SDS_P1;SDS_P2;PMS_P1;PMS_P2;Temp;Humidity;BMP_temperature;BMP_pressure;BME280_temperature;BME280_humidity;BME280_pressure;Samples;Min_cycle;Max_cycle;Signal;HPM_P1;HPM_P2
2024/04/12 00:01:04;;;;;;;6.10;2.80;;;14.60;99.90;;;;;;5260760;27;21119;-59
2024/04/12 00:03:31;;;;;;;6.10;3.17;;;14.50;99.90;;;;;;5261898;27;20486;-60
2024/04/12 00:06:00;;;;;;;5.23;2.90;;;14.50;99.90;;;;;;5274476;27;20476;-61
2024/04/12 00:08:28;;;;;;;5.93;3.10;;;14.50;99.90;;;;;;5266605;27;20900;-60
2024/04/12 00:10:56;;;;;;;4.50;2.87;;;14.50;99.90;;;;;;5277718;27;20494;-61
2024/04/12 00:13:22;;;;;;;3.43;3.13;;;14.50;99.90;;;;;;5277912;27;20475;-61
2024/04/12 00:15:48;;;;;;;4.90;3.30;;;14.50;99.90;;;;;;5278380;27;20470;-60
2024/04/12 00:18:13;;;;;;;5.10;2.93;;;14.60;99.90;;;;;;5278199;27;20580;-61
2024/04/12 00:20:39;;;;;;;4.70;2.90;;;14.60;99.90;;;;;;5278082;27;20225;-61
2024/04/12 00:23:06;;;;;;;2.73;2.37;;;14.60;99.90;;;;;;5278124;27;20688;-61
2024/04/12 00:25:32;;;;;;;3.77;3.17;;;14.60;99.90;;;;;;5267948;27;20560;-60
2024/04/12 00:27:58;;;;;;;8.60;3.77;;;14.60;99.90;;;;;;5276684;27;20462;-61
2024/04/12 00:30:41;;;;;;;4.50;2.67;;;14.70;99.90;;;;;;5262312;27;20278;-61
2024/04/12 00:33:10;;;;;;;7.13;3.57;;;14.70;99.90;;;;;;5274545;27;20604;-61
2024/04/12 00:35:40;;;;;;;3.70;3.40;;;14.60;99.90;;;;;;5274771;27;20472;-61
2024/04/12 00:38:09;;;;;;;6.33;4.33;;;14.50;99.90;;;;;;5275517;27;20466;-61
2024/04/12 00:40:46;;;;;;;4.27;3.60;;;14.50;99.90;;;;;;5277378;27;21080;-61
2024/04/12 00:43:16;;;;;;;6.73;4.67;;;14.60;99.90;;;;;;5277860;27;20460;-60
2024/04/12 00:45:45;;;;;;;7.53;4.60;;;14.60;99.90;;;;;;5278103;27;20474;-60
2024/04/12 00:48:12;;;;;;;5.53;4.13;;;14.60;99.90;;;;;;5277625;27;20616;-60
2024/04/12 00:50:41;;;;;;;4.53;3.77;;;14.60;99.90;;;;;;5268845;27;20528;-61
2024/04/12 00:53:09;;;;;;;5.60;3.97;;;14.60;99.90;;;;;;5276320;27;20475;-61
2024/04/12 00:55:38;;;;;;;4.43;3.70;;;14.60;99.90;;;;;;5277896;27;20584;-61
2024/04/12 00:58:11;;;;;;;16.20;5.13;;;14.60;99.90;;;;;;5277385;27;20480;-60
2024/04/12 01:00:37;;;;;;;5.13;3.83;;;14.50;99.90;;;;;;5277578;27;20484;-60
2024/04/12 01:03:05;;;;;;;4.43;4.03;;;14.50;99.90;;;;;;5277352;27;20867;-60
2024/04/12 01:05:32;;;;;;;7.30;4.93;;;14.50;99.90;;;;;;5264496;27;20281;-61
2024/04/12 01:08:00;;;;;;;4.80;4.30;;;14.50;99.90;;;;;;5273896;27;20522;-61
2024/04/12 01:10:26;;;;;;;8.13;5.37;;;14.50;99.90;;;;;;5276380;27;20472;-61
2024/04/12 01:12:56;;;;;;;5.50;4.93;;;14.40;99.90;;;;;;5277489;27;20458;-61
2024/04/12 01:15:32;;;;;;;5.03;4.53;;;14.50;99.90;;;;;;5277042;27;20537;-61
2024/04/12 01:18:04;;;;;;;6.37;4.60;;;14.60;99.90;;;;;;5276427;27;20481;-61
2024/04/12 01:20:32;;;;;;;6.57;5.33;;;14.60;99.90;;;;;;5274172;27;20812;-60
2024/04/12 01:22:58;;;;;;;5.83;4.90;;;14.50;99.90;;;;;;5276688;27;20476;-60
2024/04/12 01:25:26;;;;;;;7.23;5.33;;;14.60;99.90;;;;;;5277009;27;20455;-61
2024/04/12 01:27:51;;;;;;;6.07;5.47;;;14.60;99.90;;;;;;5277537;27;21099;-60
2024/04/12 01:30:20;;;;;;;6.37;5.00;;;14.60;99.90;;;;;;5276836;27;20472;-61
2024/04/12 01:32:50;;;;;;;11.13;4.43;;;14.60;99.90;;;;;;5277294;27;20231;-60
2024/04/12 01:35:22;;;;;;;7.77;5.40;;;14.60;99.90;;;;;;5277127;27;20466;-60
2024/04/12 01:37:51;;;;;;;7.17;5.70;;;14.50;99.90;;;;;;5274933;27;20536;-61
2024/04/12 01:40:17;;;;;;;8.50;4.80;;;14.50;99.90;;;;;;5264855;27;20937;-60
2024/04/12 01:42:44;;;;;;;6.63;5.30;;;14.40;99.90;;;;;;5276762;27;20477;-60
2024/04/12 01:45:13;;;;;;;7.73;5.53;;;14.40;99.90;;;;;;5275552;27;20460;-57
2024/04/12 01:47:39;;;;;;;7.10;5.30;;;14.40;99.90;;;;;;5266653;27;20475;-60
2024/04/12 01:50:05;;;;;;;7.03;4.40;;;14.50;99.90;;;;;;5274832;27;20530;-60
2024/04/12 01:52:33;;;;;;;6.33;5.73;;;14.50;99.90;;;;;;5276891;27;20229;-60
2024/04/12 01:55:05;;;;;;;7.67;5.10;;;14.50;99.90;;;;;;5277189;27;20465;-60
2024/04/12 01:57:32;;;;;;;5.90;5.40;;;14.50;99.90;;;;;;5276863;27;20522;-60
2024/04/12 02:00:02;;;;;;;8.93;5.23;;;14.50;99.90;;;;;;5276963;27;20590;-60
2024/04/12 02:02:28;;;;;;;7.77;5.13;;;14.50;99.90;;;;;;5266741;27;20484;-61
2024/04/12 02:04:56;;;;;;;6.20;4.30;;;14.50;99.90;;;;;;5274536;27;21043;-61
2024/04/12 02:07:27;;;;;;;5.70;5.10;;;14.50;99.90;;;;;;5275762;27;20355;-61
2024/04/12 02:10:07;;;;;;;5.70;4.13;;;14.50;99.90;;;;;;5276545;27;20485;-61
2024/04/12 02:12:36;;;;;;;5.57;5.00;;;14.50;99.90;;;;;;5276515;27;20528;-60
2024/04/12 02:15:19;;;;;;;4.83;3.87;;;14.40;99.90;;;;;;5276477;27;21263;-60
2024/04/12 02:17:47;;;;;;;7.40;4.57;;;14.40;99.90;;;;;;5276888;27;20554;-60
2024/04/12 02:20:19;;;;;;;5.27;3.83;;;14.40;99.90;;;;;;5262345;27;21173;-60
2024/04/12 02:22:46;;;;;;;5.97;4.40;;;14.40;99.90;;;;;;5275738;27;20456;-59
2024/04/12 02:25:17;;;;;;;6.93;3.37;;;14.40;99.90;;;;;;5260930;27;20566;-59
2024/04/12 02:27:44;;;;;;;4.00;3.50;;;14.40;99.90;;;;;;5275575;27;20520;-59
2024/04/12 02:30:11;;;;;;;4.50;3.80;;;14.30;99.90;;;;;;5273504;27;20484;-61
2024/04/12 02:32:37;;;;;;;5.43;4.03;;;14.30;99.90;;;;;;5268982;27;21001;-60
2024/04/12 02:35:03;;;;;;;5.20;3.63;;;14.20;99.90;;;;;;5275447;27;20575;-60
2024/04/12 02:37:29;;;;;;;6.23;4.30;;;14.20;99.90;;;;;;5275677;27;20841;-60
2024/04/12 02:39:55;;;;;;;4.60;3.60;;;14.30;99.90;;;;;;5276102;27;20292;-60
2024/04/12 02:42:22;;;;;;;5.90;4.43;;;14.30;99.90;;;;;;5275720;27;20619;-60
2024/04/12 02:44:48;;;;;;;3.73;3.43;;;14.30;99.90;;;;;;5275699;27;20457;-61
2024/04/12 02:47:14;;;;;;;4.83;4.30;;;14.30;99.90;;;;;;5275980;27;20524;-61
2024/04/12 02:49:40;;;;;;;4.77;3.67;;;14.30;99.90;;;;;;5276085;27;20280;-60
2024/04/12 02:52:07;;;;;;;12.57;4.30;;;14.40;99.90;;;;;;5276289;27;20509;-59
2024/04/12 02:54:35;;;;;;;6.50;3.73;;;14.30;99.90;;;;;;5275865;27;20580;-59
2024/04/12 02:57:02;;;;;;;4.83;4.23;;;14.20;99.90;;;;;;5276245;27;20524;-60
2024/04/12 02:59:28;;;;;;;7.90;3.90;;;14.20;99.90;;;;;;5275661;27;20519;-60
2024/04/12 03:01:54;;;;;;;6.13;3.90;;;14.20;99.90;;;;;;5276017;27;20477;-60
2024/04/12 03:04:20;;;;;;;7.60;4.27;;;14.20;99.90;;;;;;5275750;27;20467;-60
2024/04/12 03:06:46;;;;;;;4.00;3.60;;;14.20;99.90;;;;;;5276041;27;20475;-61
2024/04/12 03:09:12;;;;;;;4.03;3.10;;;14.20;99.90;;;;;;5275498;27;20526;-59
2024/04/12 03:11:37;;;;;;;4.90;3.07;;;14.30;99.90;;;;;;5275640;27;20679;-59
2024/04/12 03:14:15;;;;;;;5.77;4.50;;;14.20;99.90;;;;;;5275855;27;20531;-61
2024/04/12 03:16:42;;;;;;;6.13;4.53;;;14.20;99.90;;;;;;5276042;27;20612;-61
2024/04/12 03:19:14;;;;;;;6.30;4.13;;;14.20;99.90;;;;;;5275640;27;20808;-60
2024/04/12 03:21:42;;;;;;;9.10;5.30;;;14.20;99.90;;;;;;5276153;21;20788;-62
2024/04/12 03:24:09;;;;;;;6.47;5.37;;;14.20;99.90;;;;;;5272938;27;20456;-62
2024/04/12 03:26:35;;;;;;;5.27;4.77;;;14.20;99.90;;;;;;5272579;27;20588;-62
2024/04/12 03:29:05;;;;;;;6.37;4.13;;;14.20;99.90;;;;;;5272663;27;20512;-62
2024/04/12 03:31:38;;;;;;;4.63;4.00;;;14.20;99.90;;;;;;5272782;27;20550;-60
2024/04/12 03:34:06;;;;;;;4.67;4.27;;;14.10;99.90;;;;;;5272564;27;20498;-63
2024/04/12 03:41:46;;;;;;;5.90;4.17;;;14.20;99.90;;;;;;5274309;27;20586;-60
2024/04/12 03:44:18;;;;;;;6.73;4.83;;;14.10;99.90;;;;;;5275564;27;20510;-60
2024/04/12 03:46:47;;;;;;;8.43;4.60;;;14.10;99.90;;;;;;5263346;27;20524;-62
2024/04/12 03:49:20;;;;;;;5.10;4.63;;;14.10;99.90;;;;;;5275343;27;20523;-62
2024/04/12 03:51:48;;;;;;;6.63;4.17;;;14.10;99.90;;;;;;5263508;27;20471;-62
2024/04/12 03:54:21;;;;;;;7.00;4.10;;;14.10;99.90;;;;;;5275301;27;20500;-62
2024/04/12 03:56:56;;;;;;;5.57;4.00;;;14.20;99.90;;;;;;5275661;27;20822;-62
2024/04/12 03:59:27;;;;;;;6.30;5.67;;;14.10;99.90;;;;;;5275173;27;20463;-62
2024/04/12 04:01:54;;;;;;;6.33;5.73;;;14.10;99.90;;;;;;5275502;27;20469;-62
2024/04/12 04:04:25;;;;;;;12.20;6.03;;;14.10;99.90;;;;;;5275208;27;20620;-62
2024/04/12 04:06:55;;;;;;;8.53;6.47;;;14.20;99.90;;;;;;5275577;27;20456;-62
2024/04/12 04:09:27;;;;;;;5.40;4.70;;;14.20;99.90;;;;;;5274900;27;20803;-61
2024/04/12 04:11:53;;;;;;;7.47;4.87;;;14.10;99.90;;;;;;5275453;27;20540;-61
2024/04/12 04:14:20;;;;;;;7.40;5.70;;;14.10;99.90;;;;;;5275290;27;20460;-62
2024/04/12 04:16:55;;;;;;;9.07;5.73;;;14.10;99.90;;;;;;5275720;27;20542;-61
2024/04/12 04:19:30;;;;;;;6.47;5.87;;;14.10;99.90;;;;;;5275693;27;20566;-62
2024/04/12 04:22:21;;;;;;;8.27;6.40;;;14.10;99.90;;;;;;5275248;27;20600;-62
2024/04/12 04:24:48;;;;;;;11.67;6.60;;;14.10;99.90;;;;;;5275355;27;20456;-61
2024/04/12 04:27:15;;;;;;;6.90;6.27;;;14.10;99.90;;;;;;5276017;27;20467;-61
2024/04/12 04:29:43;;;;;;;8.53;5.17;;;14.10;99.90;;;;;;5275391;27;20590;-61
2024/04/12 04:32:10;;;;;;;6.57;5.97;;;14.10;99.90;;;;;;5275501;27;20527;-62
2024/04/12 04:34:36;;;;;;;11.07;6.37;;;14.10;99.90;;;;;;5275880;27;20842;-62
2024/04/12 04:37:05;;;;;;;9.60;5.60;;;14.00;99.90;;;;;;5275500;27;21074;-62
2024/04/12 04:39:32;;;;;;;6.33;5.57;;;14.00;99.90;;;;;;5274873;27;20876;-61
2024/04/12 04:41:58;;;;;;;6.13;5.50;;;14.10;99.90;;;;;;5275112;27;20465;-61
2024/04/12 04:44:24;;;;;;;5.80;5.30;;;14.10;99.90;;;;;;5274921;27;20608;-61
2024/04/12 04:46:51;;;;;;;6.20;5.20;;;14.10;99.90;;;;;;5275155;27;20579;-61
2024/04/12 04:49:23;;;;;;;8.87;5.03;;;14.10;99.90;;;;;;5274362;27;20460;-62
2024/04/12 04:51:49;;;;;;;6.63;5.43;;;14.20;99.90;;;;;;5274460;27;20485;-60
2024/04/12 04:54:16;;;;;;;9.90;5.03;;;14.20;99.90;;;;;;5274082;27;20584;-60
2024/04/12 04:56:45;;;;;;;7.70;5.17;;;14.30;99.90;;;;;;5274487;27;20456;-62
2024/04/12 04:59:28;;;;;;;5.60;5.00;;;14.20;99.90;;;;;;5274671;27;20461;-62
2024/04/12 05:01:55;;;;;;;7.43;5.00;;;14.20;99.90;;;;;;5263405;27;20630;-60
2024/04/12 05:04:21;;;;;;;7.97;5.07;;;14.20;99.90;;;;;;5274189;27;20456;-60
2024/04/12 05:06:50;;;;;;;8.20;5.80;;;14.20;99.90;;;;;;5274945;27;20460;-61
2024/04/12 05:09:18;;;;;;;5.80;4.83;;;14.30;99.90;;;;;;5274525;27;20520;-62
2024/04/12 05:11:50;;;;;;;7.20;5.00;;;14.30;99.90;;;;;;5274559;27;20783;-62
2024/04/12 05:17:06;;;;;;;5.40;4.60;;;14.30;99.90;;;;;;5274716;27;20894;-62
2024/04/12 05:19:43;;;;;;;4.87;4.23;;;14.30;99.90;;;;;;5274407;27;21200;-62
2024/04/12 05:22:13;;;;;;;5.00;4.50;;;14.40;99.90;;;;;;5274901;27;20464;-62
2024/04/12 05:24:41;;;;;;;10.80;4.73;;;14.40;99.90;;;;;;5274575;27;20679;-62
2024/04/12 05:27:07;;;;;;;5.90;4.20;;;14.30;99.90;;;;;;5275022;27;20872;-62
2024/04/12 05:29:34;;;;;;;6.73;5.60;;;14.30;99.90;;;;;;5274477;27;20475;-62
2024/04/12 05:32:00;;;;;;;6.23;4.90;;;14.40;99.90;;;;;;5274803;27;20476;-62
2024/04/12 05:34:26;;;;;;;9.23;4.77;;;14.40;99.90;;;;;;5274399;27;20817;-62
2024/04/12 05:37:04;;;;;;;5.70;4.27;;;14.40;99.90;;;;;;5274837;27;21272;-62
2024/04/12 05:39:35;;;;;;;4.57;4.17;;;14.50;99.90;;;;;;5274279;27;20614;-62
2024/04/12 05:42:07;;;;;;;6.50;5.90;;;14.50;99.90;;;;;;5274623;27;20858;-61
2024/04/12 05:44:33;;;;;;;11.57;6.23;;;14.50;99.90;;;;;;5274189;27;20473;-62
2024/04/12 05:47:05;;;;;;;7.13;5.40;;;14.50;99.90;;;;;;5269654;27;20521;-62
2024/04/12 05:49:33;;;;;;;6.87;6.17;;;14.60;99.90;;;;;;5273604;27;20484;-61
2024/04/12 05:52:01;;;;;;;6.60;5.87;;;14.60;99.90;;;;;;5274226;27;20587;-62
2024/04/12 05:54:33;;;;;;;11.07;6.47;;;14.60;99.90;;;;;;5273729;27;20460;-62
2024/04/12 05:56:59;;;;;;;9.80;7.47;;;14.60;99.90;;;;;;5270575;27;21059;-60
2024/04/12 05:59:25;;;;;;;8.17;7.07;;;14.70;99.90;;;;;;5272917;27;20528;-61
2024/04/12 06:01:51;;;;;;;7.90;6.70;;;14.60;99.90;;;;;;5273547;27;20287;-62
2024/04/12 06:04:23;;;;;;;8.83;7.90;;;14.70;99.90;;;;;;5273280;27;20972;-62
2024/04/12 06:06:49;;;;;;;10.47;7.83;;;14.70;99.90;;;;;;5270730;27;20528;-63
2024/04/12 06:09:20;;;;;;;14.20;8.83;;;14.70;99.90;;;;;;5273113;27;20589;-63
2024/04/12 06:11:50;;;;;;;10.87;8.53;;;14.70;99.90;;;;;;5272788;27;20478;-63
2024/04/12 06:14:16;;;;;;;9.13;7.80;;;14.80;99.90;;;;;;5271682;27;20984;-62
2024/04/12 06:16:42;;;;;;;9.80;8.60;;;14.80;99.90;;;;;;5278080;27;21044;-63
2024/04/12 06:19:10;;;;;;;10.60;8.20;;;14.90;99.90;;;;;;5278071;27;20892;-62
2024/04/12 06:21:38;;;;;;;8.30;7.17;;;15.00;99.90;;;;;;5274383;27;21002;-63
2024/04/12 06:24:08;;;;;;;9.30;7.80;;;15.00;99.90;;;;;;5269157;27;20464;-62
2024/04/12 06:26:39;;;;;;;9.57;7.17;;;15.00;99.90;;;;;;5273755;27;20460;-60
2024/04/12 06:29:06;;;;;;;8.80;7.23;;;15.00;99.90;;;;;;5273604;27;20519;-63
2024/04/12 06:31:34;;;;;;;10.60;8.30;;;15.00;99.90;;;;;;5273983;27;20564;-63
2024/04/12 06:34:05;;;;;;;9.30;7.50;;;15.00;99.90;;;;;;5273946;27;20481;-63
2024/04/12 06:36:33;;;;;;;6.50;5.70;;;14.90;99.90;;;;;;5273797;27;20528;-62
2024/04/12 06:39:04;;;;;;;8.50;6.30;;;15.00;99.90;;;;;;5273234;27;20544;-62
2024/04/12 06:41:31;;;;;;;8.97;6.90;;;14.90;99.90;;;;;;5273191;27;20963;-63
2024/04/12 06:43:56;;;;;;;19.87;14.03;;;14.80;99.90;;;;;;5273612;27;20823;-62
2024/04/12 06:46:27;;;;;;;13.23;6.37;;;14.90;99.90;;;;;;5274064;27;20461;-62
2024/04/12 06:48:59;;;;;;;8.77;7.57;;;14.90;99.90;;;;;;5274052;27;20332;-63
2024/04/12 06:51:26;;;;;;;12.20;6.77;;;14.90;99.90;;;;;;5273744;27;20590;-66
2024/04/12 06:53:54;;;;;;;8.27;6.90;;;15.00;99.90;;;;;;5273964;27;20556;-62
2024/04/12 06:56:20;;;;;;;7.00;5.77;;;14.90;99.90;;;;;;5273676;27;20512;-64
2024/04/12 06:58:46;;;;;;;6.97;5.70;;;14.90;99.90;;;;;;5273006;27;20462;-65
2024/04/12 07:01:12;;;;;;;8.00;5.20;;;15.00;99.90;;;;;;5273941;27;20580;-63
2024/04/12 07:03:45;;;;;;;8.13;5.50;;;15.00;99.90;;;;;;5273260;27;20463;-63
2024/04/12 07:06:14;;;;;;;6.23;5.17;;;14.90;99.90;;;;;;5273289;27;21030;-62
2024/04/12 07:08:51;;;;;;;10.60;6.53;;;14.90;99.90;;;;;;5272605;27;20865;-61
2024/04/12 07:11:18;;;;;;;6.60;5.63;;;14.90;99.90;;;;;;5273265;27;21086;-62
2024/04/12 07:13:49;;;;;;;8.43;5.87;;;15.00;99.90;;;;;;5271422;27;20654;-62
2024/04/12 07:16:19;;;;;;;7.17;5.80;;;15.00;99.90;;;;;;5272382;27;20454;-62
2024/04/12 07:18:51;;;;;;;7.90;5.83;;;15.10;99.90;;;;;;5273118;27;20476;-62
2024/04/12 07:21:22;;;;;;;6.67;6.00;;;15.20;99.90;;;;;;5272730;27;20480;-62
2024/04/12 07:23:51;;;;;;;8.30;5.90;;;15.30;99.90;;;;;;5268095;27;20466;-62
2024/04/12 07:26:27;;;;;;;15.23;7.20;;;15.20;99.90;;;;;;5273486;27;20465;-61
2024/04/12 07:29:01;;;;;;;6.73;5.70;;;15.20;99.90;;;;;;5273070;27;20579;-59
2024/04/12 07:31:30;;;;;;;5.70;5.10;;;15.20;99.90;;;;;;5272740;27;20979;-62
2024/04/12 07:34:01;;;;;;;9.90;6.13;;;15.20;99.90;;;;;;5273170;27;21050;-63
2024/04/12 07:36:30;;;;;;;7.73;5.83;;;15.20;99.90;;;;;;5273006;27;20452;-62
2024/04/12 07:39:01;;;;;;;8.43;6.47;;;15.30;99.90;;;;;;5272246;27;20765;-61
2024/04/12 07:41:48;;;;;;;8.00;5.97;;;15.60;99.90;;;;;;5272726;27;20528;-62
2024/04/12 07:44:14;;;;;;;7.60;6.70;;;15.50;99.90;;;;;;5273154;27;21003;-61
2024/04/12 07:46:49;;;;;;;7.87;6.10;;;15.50;99.90;;;;;;5272763;27;20806;-62
2024/04/12 07:49:15;;;;;;;8.80;6.20;;;15.50;99.90;;;;;;5272923;27;20474;-62
2024/04/12 07:51:45;;;;;;;10.73;6.00;;;15.50;99.90;;;;;;5272657;27;20955;-63
2024/04/12 07:54:15;;;;;;;10.20;6.90;;;15.50;99.90;;;;;;5272841;27;20454;-61
2024/04/12 07:56:56;;;;;;;7.40;6.23;;;15.60;99.90;;;;;;5272692;27;20542;-62
2024/04/12 07:59:25;;;;;;;7.63;6.50;;;15.80;99.90;;;;;;5265812;27;21082;-61
2024/04/12 08:01:57;;;;;;;16.30;11.50;;;15.90;99.90;;;;;;5268722;27;20457;-61
2024/04/12 08:04:23;;;;;;;9.87;8.40;;;16.20;99.90;;;;;;5265939;27;20601;-62
2024/04/12 08:09:34;;;;;;;7.03;6.13;;;16.70;99.90;;;;;;5272332;27;20234;-61
2024/04/12 08:12:13;;;;;;;14.03;9.53;;;16.90;99.90;;;;;;5263520;27;20478;-62
2024/04/12 08:14:39;;;;;;;10.43;7.43;;;16.50;99.90;;;;;;5247739;27;20547;-61
2024/04/12 08:17:14;;;;;;;9.83;8.83;;;16.40;99.90;;;;;;5253689;27;20465;-60
2024/04/12 08:19:45;;;;;;;13.40;8.17;;;16.50;99.90;;;;;;5266384;27;20466;-61
2024/04/12 08:22:18;;;;;;;8.17;6.50;;;17.20;99.90;;;;;;5248960;27;20610;-61
2024/04/12 08:24:49;;;;;;;10.27;7.47;;;17.50;99.90;;;;;;5271382;27;21016;-64
2024/04/12 08:27:18;;;;;;;8.10;6.30;;;16.80;99.90;;;;;;5273618;27;20523;-62
2024/04/12 08:29:45;;;;;;;8.87;7.97;;;16.70;99.90;;;;;;5275176;27;20473;-62
2024/04/12 08:34:42;;;;;;;9.13;7.30;;;16.80;99.90;;;;;;5275296;27;20470;-62
2024/04/12 08:37:16;;;;;;;8.27;7.37;;;16.80;99.90;;;;;;5272310;27;20545;-62
2024/04/12 08:39:54;;;;;;;8.20;7.30;;;16.80;99.90;;;;;;5264641;27;20535;-63
2024/04/12 08:42:28;;;;;;;8.50;6.70;;;16.90;99.90;;;;;;5252600;27;20480;-62
2024/04/12 08:45:00;;;;;;;7.87;7.07;;;16.90;99.90;;;;;;5254015;27;20567;-63
2024/04/12 08:47:30;;;;;;;9.20;7.13;;;16.80;99.90;;;;;;5249654;27;21292;-62
2024/04/12 08:50:07;;;;;;;10.37;7.60;;;16.60;99.90;;;;;;5274752;27;21066;-62
2024/04/12 08:52:43;;;;;;;7.40;6.00;;;16.50;99.90;;;;;;5275013;27;20969;-62
2024/04/12 08:55:13;;;;;;;26.43;18.60;;;16.70;99.90;;;;;;5275482;27;20607;-61
2024/04/12 08:57:43;;;;;;;8.53;6.70;;;16.80;99.90;;;;;;5274960;27;20590;-61
2024/04/12 09:00:17;;;;;;;11.10;8.17;;;16.70;99.90;;;;;;5275094;27;20541;-62
2024/04/12 09:03:04;;;;;;;15.07;9.93;;;16.80;99.90;;;;;;5268731;27;20473;-64
2024/04/12 09:05:33;;;;;;;9.43;7.50;;;16.90;99.90;;;;;;5241415;27;20464;-62
2024/04/12 09:07:59;;;;;;;9.10;7.20;;;16.80;99.90;;;;;;5266608;27;20465;-62
2024/04/12 09:10:25;;;;;;;14.60;8.53;;;17.10;99.90;;;;;;5267373;27;20712;-63
2024/04/12 09:12:52;;;;;;;9.00;6.60;;;16.90;99.90;;;;;;5273954;27;20465;-63
2024/04/12 09:15:23;;;;;;;8.67;6.43;;;17.10;99.90;;;;;;5275594;27;20569;-62
2024/04/12 09:18:00;;;;;;;11.07;8.13;;;16.90;99.90;;;;;;5274928;27;20581;-63
2024/04/12 09:20:31;;;;;;;8.37;7.10;;;16.70;99.90;;;;;;5275024;27;20479;-63
2024/04/12 09:23:13;;;;;;;14.13;10.20;;;16.80;99.90;;;;;;5267640;27;20660;-65
2024/04/12 09:25:54;;;;;;;9.70;8.10;;;16.70;99.90;;;;;;5255377;27;20569;-63
2024/04/12 09:28:37;;;;;;;19.57;11.87;;;16.60;99.90;;;;;;5265614;27;20456;-68
2024/04/12 09:33:50;;;;;;;13.10;8.57;;;16.40;99.90;;;;;;5270434;27;20904;-64
2024/04/12 09:36:50;;;;;;;11.03;7.93;;;16.40;99.90;;;;;;5254894;27;21037;-57
2024/04/12 09:39:16;;;;;;;9.50;6.73;;;16.50;99.90;;;;;;5245460;27;20479;-59
2024/04/12 09:41:53;;;;;;;10.40;7.70;;;16.40;99.90;;;;;;5250992;27;20596;-57
2024/04/12 09:44:26;;;;;;;8.53;7.63;;;16.40;99.90;;;;;;5273392;27;20578;-60
2024/04/12 10:37:51;;;;;;;5.70;5.10;;;17.40;99.90;;;;;;5275731;27;20579;-55
2024/04/12 10:40:17;;;;;;;9.30;5.67;;;17.50;99.90;;;;;;5271806;27;20467;-55
2024/04/12 10:42:45;;;;;;;6.47;5.30;;;17.50;99.90;;;;;;5244537;27;20528;-57
2024/04/12 10:45:15;;;;;;;6.20;5.27;;;17.40;99.90;;;;;;5252895;27;20236;-55
2024/04/12 10:47:44;;;;;;;6.47;4.50;;;17.60;99.90;;;;;;5255927;27;20470;-58
2024/04/12 10:50:10;;;;;;;9.43;5.80;;;17.60;99.90;;;;;;5265711;27;20503;-53
2024/04/12 10:52:38;;;;;;;7.67;5.20;;;17.80;99.90;;;;;;5274593;27;20495;-58
2024/04/12 10:55:09;;;;;;;7.20;4.80;;;17.70;99.90;;;;;;5262270;27;20459;-58
2024/04/12 10:57:41;;;;;;;8.60;4.93;;;17.80;99.90;;;;;;5275470;27;21120;-56
2024/04/12 11:00:27;;;;;;;5.70;4.10;;;17.80;99.90;;;;;;5262325;27;20509;-56
2024/04/12 11:02:59;;;;;;;5.43;4.77;;;17.80;99.90;;;;;;5302264;27;20805;-57
2024/04/12 11:05:38;;;;;;;7.43;4.17;;;17.90;99.90;;;;;;5264918;27;20475;-56
2024/04/12 11:08:06;;;;;;;5.50;4.40;;;18.00;99.90;;;;;;5260710;27;21066;-52
2024/04/12 11:10:38;;;;;;;4.70;4.03;;;18.30;99.90;;;;;;5258956;27;20462;-56
2024/04/12 11:13:10;;;;;;;4.60;4.20;;;18.60;99.90;;;;;;5260933;27;20484;-55
2024/04/12 11:32:14;;;;;;;6.57;4.53;;;18.70;99.90;;;;;;5275104;27;20858;-53
2024/04/12 11:34:41;;;;;;;5.83;5.03;;;19.20;99.90;;;;;;5267832;27;20472;-60
2024/04/12 11:37:09;;;;;;;6.27;5.27;;;18.80;99.90;;;;;;5262194;27;20572;-58
2024/04/12 11:39:37;;;;;;;4.73;4.27;;;19.20;99.90;;;;;;5274050;27;20461;-58
2024/04/12 11:42:05;;;;;;;8.80;5.50;;;19.50;99.90;;;;;;5274554;27;20539;-58
2024/04/12 11:44:34;;;;;;;4.90;4.27;;;19.60;99.90;;;;;;5274919;27;20963;-52
2024/04/12 11:47:04;;;;;;;5.83;5.10;;;19.00;99.90;;;;;;5274560;27;20509;-52
2024/04/12 11:50:10;;;;;;;6.47;5.27;;;19.20;99.90;;;;;;5274642;27;20457;-55
2024/04/12 11:52:25;;;;;;;8.60;7.30;;;18.90;99.90;;;;;;5249736;27;20491;-56
2024/04/12 11:54:55;;;;;;;5.70;4.67;;;19.20;99.90;;;;;;5270468;27;20464;-54
2024/04/12 11:57:22;;;;;;;8.03;4.70;;;19.30;99.90;;;;;;5274810;27;20476;-58
2024/04/12 11:59:54;;;;;;;6.90;6.20;;;19.40;99.90;;;;;;5274499;27;20461;-57
2024/04/12 12:02:22;;;;;;;4.80;4.30;;;19.50;99.90;;;;;;5275778;27;20562;-58
2024/04/12 12:04:48;;;;;;;8.37;5.00;;;19.50;99.90;;;;;;5275519;27;20681;-53
2024/04/12 12:07:16;;;;;;;8.90;4.50;;;20.10;99.90;;;;;;5261633;27;20469;-53
2024/04/12 12:09:42;;;;;;;5.33;4.10;;;19.90;99.90;;;;;;5255537;27;21302;-56
2024/04/12 12:12:11;;;;;;;4.90;4.37;;;20.10;99.90;;;;;;5251189;27;20466;-58
2024/04/12 12:14:38;;;;;;;9.27;4.73;;;20.20;99.90;;;;;;5248409;27;20860;-56
2024/04/12 12:17:06;;;;;;;4.60;4.20;;;20.40;99.90;;;;;;5276776;27;20543;-55
2024/04/12 12:19:32;;;;;;;4.93;4.03;;;20.70;99.90;;;;;;5277878;27;21097;-57
2024/04/12 12:21:59;;;;;;;4.07;3.67;;;20.70;99.90;;;;;;5277371;27;20525;-55
2024/04/12 12:24:25;;;;;;;4.80;4.33;;;20.60;99.90;;;;;;5277465;27;20663;-57
2024/04/12 12:26:51;;;;;;;4.30;3.87;;;20.60;99.90;;;;;;5277052;27;20577;-56
2024/04/12 12:29:18;;;;;;;4.17;3.87;;;20.70;99.90;;;;;;5276629;27;20457;-61
2024/04/12 12:31:44;;;;;;;4.23;3.77;;;20.70;99.90;;;;;;5269473;27;20239;-58
2024/04/12 12:34:11;;;;;;;5.80;4.63;;;20.40;99.90;;;;;;5255164;27;20598;-59
2024/04/12 12:36:37;;;;;;;4.07;3.13;;;20.70;99.90;;;;;;5263763;27;20576;-55
2024/04/12 12:39:03;;;;;;;3.87;3.20;;;20.70;99.90;;;;;;5253080;27;20526;-59
2024/04/12 12:41:30;;;;;;;4.40;3.60;;;20.40;99.90;;;;;;5265431;27;20822;-58
2024/04/12 12:43:57;;;;;;;4.80;3.90;;;20.20;99.90;;;;;;5276670;27;20352;-64
2024/04/12 12:46:26;;;;;;;3.50;3.20;;;20.30;99.90;;;;;;5277436;27;20473;-58
2024/04/12 12:48:55;;;;;;;5.80;3.53;;;20.20;99.90;;;;;;5276530;27;20817;-60
2024/04/12 12:51:26;;;;;;;3.60;3.30;;;20.40;99.90;;;;;;5267567;27;20478;-60
2024/04/12 12:54:00;;;;;;;4.37;3.30;;;20.20;99.90;;;;;;5276457;27;20556;-60
2024/04/12 12:56:31;;;;;;;3.97;3.07;;;20.50;99.90;;;;;;5268234;27;20636;-58
2024/04/12 12:58:59;;;;;;;4.50;3.40;;;20.80;99.90;;;;;;5258817;27;20617;-60
2024/04/12 13:01:34;;;;;;;4.10;3.70;;;20.50;99.90;;;;;;5263781;27;20530;-57
2024/04/12 13:04:07;;;;;;;3.70;3.20;;;20.40;99.90;;;;;;5257720;27;20584;-60
2024/04/12 13:06:34;;;;;;;3.83;3.20;;;20.40;99.90;;;;;;5246634;27;20577;-58
2024/04/12 13:09:00;;;;;;;3.40;3.10;;;20.50;99.90;;;;;;5273030;27;20460;-61
2024/04/12 13:11:26;;;;;;;189.07;83.93;;;20.30;99.90;;;;;;5276019;27;20474;-59
2024/04/12 13:13:52;;;;;;;416.17;177.40;;;20.80;99.90;;;;;;5274696;27;20620;-63
2024/04/12 13:16:18;;;;;;;728.47;292.77;;;21.00;99.90;;;;;;5276618;27;20230;-64
2024/04/12 13:18:51;;;;;;;270.03;90.63;;;21.10;99.90;;;;;;5277120;27;20581;-59
2024/04/12 13:21:23;;;;;;;7.87;4.47;;;21.60;98.70;;;;;;5276831;27;20984;-60
2024/04/12 13:23:49;;;;;;;6.43;3.83;;;21.50;98.60;;;;;;5276501;27;20519;-61
2024/04/12 13:26:25;;;;;;;4.10;2.87;;;21.40;98.90;;;;;;5276751;27;20965;-58
2024/04/12 13:28:53;;;;;;;3.60;3.10;;;21.00;99.00;;;;;;5276597;27;20647;-64
2024/04/12 13:31:23;;;;;;;3.80;2.70;;;21.40;99.70;;;;;;5276582;27;20901;-59
2024/04/12 13:33:53;;;;;;;3.53;3.07;;;21.40;98.60;;;;;;5271599;27;20607;-59
2024/04/12 13:36:20;;;;;;;4.30;3.30;;;21.50;99.70;;;;;;5276484;27;20460;-58
2024/04/12 13:38:50;;;;;;;5.30;3.40;;;21.30;99.90;;;;;;5276143;27;20483;-58
2024/04/12 13:41:16;;;;;;;3.63;3.23;;;21.40;98.50;;;;;;5276460;27;20578;-58
2024/04/12 13:43:46;;;;;;;3.40;3.10;;;21.10;99.80;;;;;;5276620;27;20472;-58
2024/04/12 13:51:49;;;;;;;3.60;2.70;;;21.10;99.90;;;;;;5275869;27;20562;-62
2024/04/12 13:54:23;;;;;;;3.03;2.73;;;20.90;99.60;;;;;;5274181;27;20899;-54
2024/04/12 13:56:56;;;;;;;2.60;2.40;;;20.80;99.90;;;;;;5257400;27;20466;-49
2024/04/12 13:59:25;;;;;;;2.57;2.37;;;21.00;99.50;;;;;;5261226;27;20528;-51
2024/04/12 14:01:51;;;;;;;3.40;2.60;;;21.10;99.80;;;;;;5275419;27;20880;-55
2024/04/12 14:04:19;;;;;;;3.27;2.33;;;21.00;99.90;;;;;;5276627;27;20591;-54
2024/04/12 14:06:46;;;;;;;4.00;2.70;;;21.00;99.90;;;;;;5272640;27;20459;-52
2024/04/12 14:09:13;;;;;;;2.87;2.67;;;21.10;99.70;;;;;;5261504;27;20931;-57
2024/04/12 14:11:42;;;;;;;3.90;2.20;;;21.30;99.40;;;;;;5271751;27;20531;-49
2024/04/12 14:14:09;;;;;;;3.90;2.27;;;21.40;99.20;;;;;;5274228;27;20460;-52
2024/04/12 14:16:41;;;;;;;3.20;2.40;;;21.10;98.80;;;;;;5275892;27;20476;-52
2024/04/12 14:19:20;;;;;;;4.00;2.60;;;21.10;99.90;;;;;;5276086;27;20624;-51
2024/04/12 14:21:53;;;;;;;5.90;2.70;;;21.70;98.70;;;;;;5275807;27;20546;-48
2024/04/12 14:27:05;;;;;;;5.43;2.67;;;21.60;97.80;;;;;;5259524;27;20550;-55
2024/04/12 14:29:32;;;;;;;2.37;2.17;;;21.10;99.20;;;;;;5257691;27;20829;-54